Time;durP1;ratioP1;P1;durP2;ratioP2;P2;SDS_P1;SDS_P2;PMS_P1;PMS_P2;Temp;Humidity;BMP_temperature;BMP_pressure;BME280_temperature;BME280_humidity;BME280_pressure;Samples;Min_cycle;Max_cycle;Signal;HPM_P1;HPM_P2
2023/10/02 00:01:53;;;;;;;7.90;7.70;;;;;;;-141.02;100.00;37919.22;5094710;28;20305;-60
2023/10/02 00:04:24;;;;;;;8.00;7.80;;;;;;;-141.02;100.00;37913.47;5095220;28;20713;-57
2023/10/02 00:07:05;;;;;;;7.78;7.57;;;;;;;-141.02;100.00;37974.81;5095294;28;20281;-60
2023/10/02 00:09:34;;;;;;;8.10;7.90;;;;;;;-141.02;100.00;37949.88;5095584;28;20198;-61
2023/10/02 00:12:11;;;;;;;8.30;8.10;;;;;;;-141.02;100.00;37944.13;5095567;28;20247;-58
2023/10/02 00:14:38;;;;;;;8.30;8.10;;;;;;;-141.02;100.00;37978.66;5095222;28;20194;-60
2023/10/02 00:17:07;;;;;;;8.30;8.10;;;;;;;-141.02;100.00;37936.47;5095483;28;20232;-58
2023/10/02 00:19:39;;;;;;;8.60;8.40;;;;;;;-141.02;100.00;37959.47;5094939;28;20617;-62
2023/10/02 00:22:34;;;;;;;9.18;8.90;;;;;;;-141.02;100.00;37995.91;5095335;28;20272;-62
2023/10/02 00:25:00;;;;;;;9.38;9.07;;;;;;;-141.02;100.00;38001.66;5094761;28;20229;-59
2023/10/02 00:27:28;;;;;;;9.10;8.90;;;;;;;-141.02;100.00;38005.47;5095055;28;20621;-59
2023/10/02 00:29:58;;;;;;;8.88;8.68;;;;;;;-141.02;100.00;38099.41;5095154;28;20569;-60
2023/10/02 00:32:26;;;;;;;9.00;8.80;;;;;;;-141.02;100.00;38009.31;5094765;28;20198;-63
2023/10/02 00:34:54;;;;;;;9.30;9.00;;;;;;;-141.02;100.00;38005.47;5094675;28;20660;-62
2023/10/02 00:37:43;;;;;;;9.50;9.20;;;;;;;-141.02;100.00;38016.97;5094800;28;20251;-58
2023/10/02 00:40:13;;;;;;;9.50;9.20;;;;;;;-141.02;100.00;38001.66;5094668;28;20197;-63
2023/10/02 00:42:42;;;;;;;9.60;9.30;;;;;;;-141.02;100.00;37986.31;5094983;28;20190;-60
2023/10/02 00:45:08;;;;;;;9.80;9.50;;;;;;;-141.02;100.00;38040.00;5094838;28;20264;-63
2023/10/02 00:47:48;;;;;;;9.80;9.50;;;;;;;-141.02;100.00;38070.66;5094522;28;20212;-62
2023/10/02 00:50:19;;;;;;;10.55;10.25;;;;;;;-141.02;100.00;38047.66;5094830;28;20276;-62
2023/10/02 00:52:58;;;;;;;10.45;10.15;;;;;;;-141.02;100.00;38036.16;5094799;28;20268;-58
2023/10/02 00:55:27;;;;;;;10.48;10.18;;;;;;;-141.02;100.00;38020.81;5094482;28;20197;-58
2023/10/02 00:57:57;;;;;;;9.95;9.65;;;;;;;-141.02;100.00;38070.66;5094314;28;20198;-63
2023/10/02 01:00:35;;;;;;;10.10;9.80;;;;;;;-141.02;100.00;38040.00;5094326;28;20229;-57
2023/10/02 01:03:04;;;;;;;10.07;9.77;;;;;;;-141.02;100.00;38024.66;5094617;28;20186;-63
2023/10/02 01:05:42;;;;;;;10.15;9.85;;;;;;;-141.02;100.00;38030.41;5094227;28;20256;-57
2023/10/02 01:08:23;;;;;;;9.60;9.30;;;;;;;-141.02;100.00;38001.66;5094144;28;20182;-57
2023/10/02 01:10:59;;;;;;;9.77;9.48;;;;;;;-141.02;100.00;38013.16;5094103;28;20186;-61
2023/10/02 01:13:29;;;;;;;10.18;9.88;;;;;;;-141.02;100.00;38040.00;5094239;28;20197;-62
2023/10/02 01:15:59;;;;;;;10.88;10.57;;;;;;;-141.02;100.00;38070.66;5094033;28;20197;-60
2023/10/02 01:18:28;;;;;;;10.30;10.00;;;;;;;-141.02;100.00;38066.81;5093966;28;20668;-63
2023/10/02 01:20:56;;;;;;;10.63;10.32;;;;;;;-141.02;100.00;38041.91;5093871;28;20574;-63
2023/10/02 01:23:26;;;;;;;10.18;9.88;;;;;;;-141.02;100.00;38089.84;5094002;28;20197;-62
2023/10/02 01:26:00;;;;;;;10.20;9.90;;;;;;;-141.02;100.00;38082.16;5094037;28;20226;-62
2023/10/02 01:28:32;;;;;;;10.60;10.30;;;;;;;-141.02;100.00;38063.00;5094123;28;20209;-59
2023/10/02 01:31:31;;;;;;;10.60;10.30;;;;;;;-141.02;100.00;38101.34;5093749;28;20652;-62
2023/10/02 01:33:46;;;;;;;10.82;10.52;;;;;;;-141.02;100.00;38110.91;5093134;28;20573;-57
2023/10/02 01:36:14;;;;;;;10.70;10.40;;;;;;;-141.02;100.00;38101.34;5093612;28;20240;-60
2023/10/02 01:38:44;;;;;;;10.98;10.68;;;;;;;-141.02;100.00;38074.50;5093590;28;20202;-63
2023/10/02 01:41:14;;;;;;;11.27;10.98;;;;;;;-141.02;100.00;38112.84;5093519;28;20204;-59
2023/10/02 01:43:44;;;;;;;11.00;10.70;;;;;;;-141.02;100.00;38124.34;5093461;28;20201;-62
2023/10/02 01:46:12;;;;;;;11.15;10.85;;;;;;;-141.02;100.00;38110.91;5093630;28;20225;-63
2023/10/02 01:48:41;;;;;;;10.63;10.32;;;;;;;-141.02;100.00;38109.00;5093705;28;20194;-59
2023/10/02 01:51:25;;;;;;;11.10;10.80;;;;;;;-141.02;100.00;38124.34;5094351;28;20197;-62
2023/10/02 01:54:02;;;;;;;10.93;10.63;;;;;;;-141.02;100.00;38124.34;5093216;28;20186;-61
2023/10/02 01:56:34;;;;;;;10.90;10.60;;;;;;;-141.02;100.00;38128.16;5093537;28;20712;-62
2023/10/02 01:59:09;;;;;;;11.10;10.80;;;;;;;-141.02;100.00;38128.16;5093128;28;20193;-63
2023/10/02 02:01:46;;;;;;;10.93;10.63;;;;;;;-141.02;100.00;38133.91;5092342;28;20711;-61
2023/10/02 02:04:14;;;;;;;10.60;10.30;;;;;;;-141.02;100.00;38139.69;5092982;28;20658;-61
2023/10/02 02:06:51;;;;;;;10.57;10.27;;;;;;;-141.02;100.00;38132.00;5092238;28;20281;-60
2023/10/02 02:09:23;;;;;;;10.60;10.30;;;;;;;-141.02;100.00;38128.16;5093236;28;20194;-63
2023/10/02 02:12:10;;;;;;;10.80;10.50;;;;;;;-141.02;100.00;38149.25;5092967;28;20235;-59
2023/10/02 02:14:41;;;;;;;10.75;10.45;;;;;;;-141.02;100.00;38162.69;5093227;28;20196;-61
2023/10/02 02:17:10;;;;;;;10.93;10.63;;;;;;;-141.02;100.00;38158.84;5092788;28;20240;-60
2023/10/02 02:19:37;;;;;;;10.90;10.60;;;;;;;-141.02;100.00;38164.59;5092995;28;20297;-61
2023/10/02 02:22:05;;;;;;;10.93;10.63;;;;;;;-141.02;100.00;38158.84;5092913;28;20190;-57
2023/10/02 02:24:34;;;;;;;11.07;10.77;;;;;;;-141.02;100.00;38204.84;5092612;28;20194;-63
2023/10/02 02:27:06;;;;;;;11.25;10.95;;;;;;;-141.02;100.00;38210.59;5092615;28;20283;-57
2023/10/02 02:29:34;;;;;;;11.50;11.18;;;;;;;-141.02;100.00;38225.94;5092588;28;20753;-62
2023/10/02 02:32:02;;;;;;;12.23;11.82;;;;;;;-141.02;100.00;38273.88;5092548;28;20251;-58
2023/10/02 02:34:29;;;;;;;12.00;11.60;;;;;;;-141.02;100.00;38342.88;5092565;28;20200;-64
2023/10/02 02:36:59;;;;;;;12.50;12.10;;;;;;;-141.02;100.00;38331.38;5092698;28;20202;-62
2023/10/02 02:39:28;;;;;;;12.50;12.10;;;;;;;-141.02;100.00;38339.06;5092855;28;20201;-60
2023/10/02 02:42:18;;;;;;;13.45;13.05;;;;;;;-141.02;100.00;38381.22;5092456;28;20284;-61
2023/10/02 02:44:46;;;;;;;13.40;13.00;;;;;;;-141.02;100.00;38446.41;5092372;28;20644;-56
2023/10/02 02:47:14;;;;;;;14.10;13.60;;;;;;;-141.02;100.00;38500.09;5092368;28;20230;-59
2023/10/02 02:49:52;;;;;;;14.27;13.77;;;;;;;-141.02;100.00;38523.09;5092482;28;20652;-57
2023/10/02 02:52:21;;;;;;;14.30;13.80;;;;;;;-141.02;100.00;38571.03;5092381;28;20202;-56
2023/10/02 02:54:50;;;;;;;14.02;13.52;;;;;;;-141.02;100.00;38618.97;5092285;28;20198;-63
2023/10/02 02:57:25;;;;;;;13.93;13.43;;;;;;;-141.02;100.00;38594.06;5092192;28;20574;-62
2023/10/02 03:00:24;;;;;;;14.20;13.70;;;;;;;-141.02;100.00;38563.38;5091924;28;20252;-62
2023/10/02 03:02:46;;;;;;;13.90;13.40;;;;;;;-141.02;100.00;38611.31;5092080;28;20243;-61
2023/10/02 03:05:12;;;;;;;14.00;13.50;;;;;;;-141.02;100.00;38609.38;5092329;28;20193;-60
2023/10/02 03:07:40;;;;;;;13.00;12.60;;;;;;;-141.02;100.00;38588.28;5092475;28;20220;-57
2023/10/02 03:10:12;;;;;;;13.30;12.90;;;;;;;-141.02;100.00;38605.56;5092027;28;20663;-58
2023/10/02 03:12:45;;;;;;;13.30;12.90;;;;;;;-141.02;100.00;38572.97;5092139;28;20182;-62
2023/10/02 03:15:17;;;;;;;13.23;12.82;;;;;;;-141.02;100.00;38592.13;5092060;28;20186;-58
2023/10/02 03:17:45;;;;;;;13.30;12.90;;;;;;;-141.02;100.00;38613.22;5095044;28;20285;-58
2023/10/02 03:20:23;;;;;;;13.15;12.75;;;;;;;-141.02;100.00;38592.13;5096268;28;20254;-59
2023/10/02 03:22:53;;;;;;;13.07;12.68;;;;;;;-141.02;100.00;38599.81;5096144;28;20276;-61
2023/10/02 03:25:40;;;;;;;13.05;12.65;;;;;;;-141.02;100.00;38618.97;5096634;28;20190;-59
2023/10/02 03:28:27;;;;;;;12.95;12.55;;;;;;;-141.02;100.00;38580.63;5096415;28;20379;-58
2023/10/02 03:30:54;;;;;;;13.30;12.90;;;;;;;-141.02;100.00;38553.78;5096414;28;20186;-63
2023/10/02 03:33:21;;;;;;;12.63;12.23;;;;;;;-141.02;100.00;38574.88;5096009;28;20198;-62
2023/10/02 03:35:58;;;;;;;12.55;12.15;;;;;;;-141.02;100.00;38563.38;5095811;28;20251;-59
2023/10/02 03:38:26;;;;;;;12.88;12.48;;;;;;;-141.02;100.00;38580.63;5096165;28;20619;-60
2023/10/02 03:40:58;;;;;;;12.40;12.00;;;;;;;-141.02;100.00;38571.03;5096137;28;20273;-62
2023/10/02 03:43:35;;;;;;;11.80;11.40;;;;;;;-141.02;100.00;38594.06;5096171;28;20202;-61
2023/10/02 03:46:04;;;;;;;11.70;11.30;;;;;;;-141.02;100.00;38572.97;5095676;28;20667;-60
2023/10/02 03:48:32;;;;;;;12.05;11.65;;;;;;;-141.02;100.00;38574.88;5096018;28;20676;-57
2023/10/02 03:51:00;;;;;;;12.07;11.68;;;;;;;-141.02;100.00;38586.38;5095504;28;20664;-62
2023/10/02 03:53:30;;;;;;;12.40;12.00;;;;;;;-141.02;100.00;38569.13;5095872;28;20236;-63
2023/10/02 03:56:36;;;;;;;12.52;12.13;;;;;;;-141.02;100.00;38586.38;5095764;28;20296;-58
2023/10/02 03:58:50;;;;;;;13.05;12.65;;;;;;;-141.02;100.00;38645.81;5095439;28;20229;-62
2023/10/02 04:01:27;;;;;;;13.10;12.70;;;;;;;-141.02;100.00;38634.31;5095237;28;20295;-57
2023/10/02 04:04:04;;;;;;;13.30;12.90;;;;;;;-141.02;100.00;38630.47;5095828;28;20236;-63
2023/10/02 04:06:33;;;;;;;13.15;12.75;;;;;;;-141.02;100.00;38701.41;5095302;28;20221;-58
2023/10/02 04:09:09;;;;;;;13.38;12.98;;;;;;;-141.02;100.00;38703.34;5095631;28;20573;-58
2023/10/02 04:11:38;;;;;;;13.20;12.80;;;;;;;-141.02;100.00;38758.94;5095336;28;20186;-63
2023/10/02 04:14:17;;;;;;;13.25;12.85;;;;;;;-141.02;100.00;38826.06;5095527;28;20292;-57
2023/10/02 04:16:48;;;;;;;13.52;13.13;;;;;;;-141.02;100.00;38849.06;5095449;28;20192;-60
2023/10/02 04:19:15;;;;;;;13.07;12.68;;;;;;;-141.02;100.00;38952.59;5095117;28;20190;-60
2023/10/02 04:21:45;;;;;;;13.80;13.30;;;;;;;-141.02;100.00;39058.06;5095305;28;20621;-61
2023/10/02 04:24:12;;;;;;;13.98;13.48;;;;;;;-141.02;100.00;39159.72;5095040;28;20647;-61
2023/10/02 04:26:41;;;;;;;14.27;13.77;;;;;;;-141.02;100.00;39232.59;5094886;28;20257;-58
2023/10/02 04:29:26;;;;;;;14.13;13.63;;;;;;;-141.02;100.00;39309.28;5094116;28;20540;-60
2023/10/02 04:32:11;;;;;;;14.65;14.15;;;;;;;-141.02;100.00;39405.19;5094938;28;20661;-58
2023/10/02 04:34:46;;;;;;;14.48;13.98;;;;;;;-141.02;100.00;39453.13;5094829;28;20190;-61
2023/10/02 04:37:19;;;;;;;14.52;14.02;;;;;;;-141.02;100.00;39527.91;5094867;28;20224;-59
2023/10/02 04:40:13;;;;;;;14.20;13.70;;;;;;;-141.02;100.00;39612.31;5095008;28;20186;-63
2023/10/02 04:42:57;;;;;;;14.60;14.10;;;;;;;-141.02;100.00;39677.50;5094996;28;20185;-59
2023/10/02 04:45:34;;;;;;;14.05;13.55;;;;;;;-141.02;100.00;39758.06;5094691;28;20640;-61
2023/10/02 04:48:00;;;;;;;14.60;14.10;;;;;;;-141.02;100.00;39830.94;5094839;28;20193;-57
2023/10/02 04:50:36;;;;;;;14.60;14.10;;;;;;;-141.02;100.00;39825.19;5094901;28;20231;-60
2023/10/02 04:53:19;;;;;;;13.82;13.32;;;;;;;-141.02;100.00;39852.06;5094728;28;20243;-60
2023/10/02 04:55:48;;;;;;;14.30;13.80;;;;;;;-141.02;100.00;39819.44;5094442;28;20719;-59
2023/10/02 04:58:19;;;;;;;13.50;13.10;;;;;;;-141.02;100.00;39815.59;5094374;28;20201;-59
2023/10/02 05:03:36;;;;;;;14.05;13.55;;;;;;;-141.02;100.00;39915.34;5094487;28;20675;-61
2023/10/02 05:06:03;;;;;;;14.10;13.60;;;;;;;-141.02;100.00;39909.59;5094089;28;20221;-58
2023/10/02 05:08:35;;;;;;;13.32;12.93;;;;;;;-141.02;100.00;39953.72;5094185;28;20237;-59
2023/10/02 05:11:06;;;;;;;13.80;13.35;;;;;;;-141.02;100.00;39878.91;5094094;28;20190;-62
2023/10/02 05:13:53;;;;;;;13.73;13.23;;;;;;;-141.02;100.00;39919.19;5094084;28;20188;-61
2023/10/02 05:16:29;;;;;;;13.90;13.40;;;;;;;-141.02;100.00;40026.59;5093994;28;20193;-63
2023/10/02 05:18:57;;;;;;;13.27;12.88;;;;;;;-141.02;100.00;39923.03;5094017;28;20188;-58
2023/10/02 05:21:35;;;;;;;13.70;13.20;;;;;;;-141.02;100.00;39888.50;5093882;28;20200;-62
2023/10/02 05:24:04;;;;;;;13.38;12.98;;;;;;;-141.02;100.00;39884.66;5094205;28;20194;-57
2023/10/02 05:26:34;;;;;;;13.30;12.90;;;;;;;-141.02;100.00;39577.78;5093986;28;20221;-60
2023/10/02 05:29:03;;;;;;;13.18;12.77;;;;;;;-141.02;100.00;39942.19;5093782;28;20219;-58
2023/10/02 05:31:35;;;;;;;14.00;13.50;;;;;;;-141.02;100.00;39961.38;5093955;28;20278;-59
2023/10/02 05:34:07;;;;;;;13.80;13.30;;;;;;;-141.02;100.00;39980.56;5093746;28;20277;-62
2023/10/02 05:36:35;;;;;;;13.95;13.45;;;;;;;-141.02;100.00;39988.22;5093875;28;20225;-62
2023/10/02 05:41:46;;;;;;;14.45;13.95;;;;;;;-141.02;100.00;40187.72;5092745;28;20211;-57
2023/10/02 05:44:20;;;;;;;14.93;14.43;;;;;;;-141.02;100.00;40139.78;5093758;28;20678;-57
2023/10/02 05:46:57;;;;;;;14.38;13.88;;;;;;;-141.02;100.00;40134.00;5093635;28;20245;-57
2023/10/02 05:49:26;;;;;;;15.27;14.68;;;;;;;-141.02;100.00;40147.44;5093459;28;20190;-58
2023/10/02 05:51:56;;;;;;;15.50;14.90;;;;;;;-141.02;100.00;40153.19;5093482;28;20276;-62
2023/10/02 05:54:29;;;;;;;15.40;14.80;;;;;;;-141.02;100.00;40134.00;5093292;28;20303;-57
2023/10/02 05:57:08;;;;;;;16.60;15.90;;;;;;;-141.02;100.00;40203.06;5093172;28;20716;-63
2023/10/02 05:59:45;;;;;;;16.55;15.85;;;;;;;-141.02;100.00;40245.28;5093314;28;20193;-62
2023/10/02 06:02:14;;;;;;;16.02;15.32;;;;;;;-141.02;100.00;40245.28;5093367;28;20182;-62
2023/10/02 06:04:47;;;;;;;16.20;15.50;;;;;;;-141.02;100.00;40266.38;5093346;28;20198;-60
2023/10/02 06:07:40;;;;;;;16.88;16.17;;;;;;;-141.02;100.00;39817.53;5092922;28;20253;-61
2023/10/02 06:10:08;;;;;;;17.10;16.30;;;;;;;-141.02;100.00;40389.16;5092810;28;20197;-63
2023/10/02 06:12:36;;;;;;;17.23;16.42;;;;;;;-141.02;99.59;40394.91;5093250;28;20190;-62
2023/10/02 06:15:09;;;;;;;17.38;16.58;;;;;;;-141.02;97.19;40427.50;5093182;28;20248;-61
2023/10/02 06:17:38;;;;;;;17.60;16.80;;;;;;;-141.02;97.07;40475.47;5093102;28;20713;-58
2023/10/02 06:20:17;;;;;;;17.48;16.67;;;;;;;-141.02;95.88;40490.81;5093069;28;20221;-62
2023/10/02 06:22:47;;;;;;;17.70;16.90;;;;;;;-141.02;95.07;40533.03;5093013;28;20186;-61
2023/10/02 06:25:18;;;;;;;17.55;16.75;;;;;;;-141.02;94.59;40556.03;5092734;28;20201;-59
2023/10/02 06:27:47;;;;;;;17.67;16.88;;;;;;;-141.02;92.37;40575.22;5092636;28;20308;-61
2023/10/02 06:30:16;;;;;;;17.88;17.08;;;;;;;-141.02;91.81;40628.94;5092645;28;20656;-63
2023/10/02 06:32:52;;;;;;;17.75;16.95;;;;;;;-141.02;89.75;40701.84;5092499;28;20572;-61
2023/10/02 06:35:21;;;;;;;18.17;17.27;;;;;;;-141.02;88.18;40730.63;5092546;28;20190;-57
2023/10/02 06:37:49;;;;;;;18.60;17.70;;;;;;;-141.02;86.06;40759.41;5092501;28;20196;-62
2023/10/02 06:40:16;;;;;;;18.48;17.58;;;;;;;-141.02;83.70;40630.88;5092728;28;20295;-63
2023/10/02 06:42:50;;;;;;;18.48;17.58;;;;;;;-141.02;82.91;40816.97;5092691;28;20194;-58
2023/10/02 06:45:18;;;;;;;19.05;18.15;;;;;;;-141.02;82.65;40843.81;5092737;28;20223;-62
2023/10/02 06:47:48;;;;;;;19.50;18.60;;;;;;;-141.02;80.77;40912.91;5092496;28;20226;-59
2023/10/02 06:50:27;;;;;;;19.27;18.38;;;;;;;-141.02;80.09;40947.44;5092315;28;20194;-63
2023/10/02 06:52:54;;;;;;;19.00;18.10;;;;;;;-141.02;79.87;40901.38;5092292;28;20193;-62
2023/10/02 06:55:24;;;;;;;19.50;18.60;;;;;;;-141.02;79.44;40920.56;5092247;28;20189;-62
2023/10/02 06:57:52;;;;;;;19.27;18.38;;;;;;;-141.02;78.98;40916.75;5092443;28;20580;-62
2023/10/02 07:00:20;;;;;;;19.15;18.25;;;;;;;-141.02;79.53;40958.94;5092182;28;20229;-59
2023/10/02 07:02:56;;;;;;;18.73;17.83;;;;;;;-141.02;77.34;40955.09;5092140;28;20577;-63
2023/10/02 07:05:27;;;;;;;18.90;18.00;;;;;;;-141.02;77.26;40901.38;5092530;28;20251;-62
2023/10/02 07:08:01;;;;;;;19.05;18.15;;;;;;;-141.02;79.43;40901.38;5092475;28;20249;-61
2023/10/02 07:10:29;;;;;;;18.73;17.83;;;;;;;-141.02;79.60;40901.38;5092217;28;20182;-62
2023/10/02 07:12:57;;;;;;;18.75;17.85;;;;;;;-141.02;79.78;40981.97;5092017;28;20198;-61
2023/10/02 07:15:26;;;;;;;18.88;17.98;;;;;;;-141.02;81.04;41066.41;5091978;28;20594;-63
2023/10/02 07:18:00;;;;;;;19.00;18.10;;;;;;;-141.02;79.58;41077.91;5092318;28;20200;-61
2023/10/02 07:20:42;;;;;;;18.95;18.05;;;;;;;-141.02;78.92;41100.94;5092027;28;20189;-62
2023/10/02 07:23:13;;;;;;;19.15;18.15;;;;;;;-141.02;76.48;41043.38;5092071;28;20190;-61
2023/10/02 07:25:41;;;;;;;19.17;18.25;;;;;;;-141.02;76.07;40974.28;5091991;28;20648;-61
2023/10/02 07:28:08;;;;;;;18.95;18.05;;;;;;;-141.02;76.36;41193.03;5091869;28;20225;-62
2023/10/02 07:30:35;;;;;;;18.67;17.77;;;;;;;-141.02;76.97;41323.50;5091846;28;20193;-63
2023/10/02 07:33:03;;;;;;;19.00;18.10;;;;;;;-141.02;75.18;41352.31;5091897;28;20204;-63
2023/10/02 07:35:30;;;;;;;18.83;17.92;;;;;;;-141.02;71.03;41352.31;5091804;28;20240;-63
2023/10/02 07:37:59;;;;;;;18.83;17.92;;;;;;;-141.02;69.09;41427.13;5091902;28;20251;-58
2023/10/02 07:40:46;;;;;;;19.63;18.63;;;;;;;-141.02;70.49;41450.16;5092093;28;20571;-62
2023/10/02 07:43:14;;;;;;;19.45;18.45;;;;;;;-141.02;67.62;41503.91;5092089;28;20186;-61
2023/10/02 07:45:41;;;;;;;19.38;18.38;;;;;;;-141.02;67.97;41540.34;5092001;28;20198;-60
2023/10/02 07:48:10;;;;;;;19.33;18.33;;;;;;;-141.02;66.77;41576.81;5091679;28;20625;-63
2023/10/02 07:50:39;;;;;;;19.00;18.00;;;;;;;-141.02;67.01;41601.75;5091726;28;20194;-60
2023/10/02 07:53:07;;;;;;;19.38;18.38;;;;;;;-141.02;65.32;41634.38;5092000;28;20663;-63
2023/10/02 07:55:35;;;;;;;19.67;18.67;;;;;;;-141.02;64.41;41676.59;5091973;28;20198;-63
2023/10/02 07:58:04;;;;;;;19.90;18.90;;;;;;;-141.02;64.99;41730.34;5091544;28;20233;-63
2023/10/02 08:00:37;;;;;;;19.27;18.27;;;;;;;-141.02;65.89;41755.28;5091533;28;20241;-62
2023/10/02 08:03:29;;;;;;;19.25;18.27;;;;;;;-141.02;65.20;41776.41;5091864;28;20243;-62
2023/10/02 08:05:57;;;;;;;18.73;17.83;;;;;;;-141.02;65.63;41795.59;5095359;28;20198;-63
2023/10/02 08:08:30;;;;;;;19.27;18.38;;;;;;;-141.02;64.91;41837.81;5095276;28;20320;-61
2023/10/02 08:10:57;;;;;;;18.95;18.05;;;;;;;-141.02;63.29;41833.97;5095412;28;20712;-63
2023/10/02 08:13:33;;;;;;;18.92;17.98;;;;;;;-141.02;62.65;41922.25;5095252;28;20193;-64
2023/10/02 08:16:04;;;;;;;18.98;18.08;;;;;;;-141.02;62.89;41941.44;5095562;28;20189;-57
2023/10/02 08:18:31;;;;;;;18.58;17.67;;;;;;;-141.02;62.76;41910.75;5095494;28;20277;-57
2023/10/02 08:21:02;;;;;;;19.15;18.15;;;;;;;-141.02;61.64;41979.84;5095421;28;20197;-60
2023/10/02 08:23:29;;;;;;;19.17;18.17;;;;;;;-141.02;62.08;42045.09;5095301;28;20217;-63
2023/10/02 08:26:02;;;;;;;18.95;17.95;;;;;;;-141.02;64.05;42052.78;5095012;28;20200;-58
2023/10/02 08:28:34;;;;;;;18.95;18.00;;;;;;;-141.02;63.20;42154.50;5095198;28;20232;-60
2023/10/02 08:31:02;;;;;;;19.38;18.38;;;;;;;-141.02;62.40;42114.19;5095177;28;20190;-61
2023/10/02 08:33:30;;;;;;;19.25;18.25;;;;;;;-141.02;62.13;42167.94;5094799;28;20197;-64
2023/10/02 08:36:01;;;;;;;18.85;17.85;;;;;;;-141.02;62.20;42187.13;5094808;28;20190;-61
2023/10/02 08:38:29;;;;;;;18.13;17.23;;;;;;;-141.02;61.72;42206.31;5095047;28;20247;-61
2023/10/02 08:41:00;;;;;;;18.75;17.85;;;;;;;-141.02;62.52;42215.91;5095521;28;20198;-59
2023/10/02 08:43:28;;;;;;;18.52;17.63;;;;;;;-141.02;63.63;42277.34;5095049;28;20265;-64
2023/10/02 08:45:56;;;;;;;18.80;17.90;;;;;;;-141.02;63.21;42290.78;5094890;28;20233;-60
2023/10/02 08:48:25;;;;;;;18.38;17.48;;;;;;;-141.02;61.32;42263.91;5094427;28;20691;-59
2023/10/02 08:50:52;;;;;;;17.83;16.92;;;;;;;-141.02;61.76;42285.00;5094688;28;20281;-61
2023/10/02 08:53:21;;;;;;;17.95;17.05;;;;;;;-141.02;61.32;42279.25;5094486;28;20233;-60
2023/10/02 08:56:22;;;;;;;17.67;16.77;;;;;;;-141.02;62.37;42344.53;5094597;28;20198;-61
2023/10/02 08:59:15;;;;;;;17.88;16.98;;;;;;;-141.02;61.73;42344.53;5094716;28;20182;-61
2023/10/02 09:01:40;;;;;;;19.95;18.85;;;;;;;-141.02;61.82;42340.69;5094153;28;20234;-61
2023/10/02 09:07:22;;;;;;;17.75;16.85;;;;;;;-141.02;60.88;42463.53;5051837;28;20218;-62
2023/10/02 09:10:12;;;;;;;17.77;16.88;;;;;;;-141.02;62.20;42455.84;5088595;28;20240;-61
2023/10/02 09:12:48;;;;;;;17.60;16.70;;;;;;;-141.02;61.00;42448.16;5094481;28;20190;-64
2023/10/02 09:15:27;;;;;;;17.75;16.85;;;;;;;-141.02;61.71;42509.59;5093802;28;20181;-64
2023/10/02 09:17:57;;;;;;;17.88;16.98;;;;;;;-141.02;60.84;42498.06;5094005;28;20559;-64
2023/10/02 09:20:38;;;;;;;17.52;16.63;;;;;;;-141.02;61.31;42480.81;5093907;28;20232;-60
2023/10/02 09:23:09;;;;;;;17.88;16.98;;;;;;;-141.02;61.27;42471.19;5094253;28;20205;-61
2023/10/02 09:25:37;;;;;;;17.77;16.90;;;;;;;-141.02;61.19;42517.28;5093837;28;20182;-63
2023/10/02 09:28:13;;;;;;;17.83;16.92;;;;;;;-141.02;60.05;42505.75;5093752;28;20271;-63
2023/10/02 09:30:41;;;;;;;17.85;16.95;;;;;;;-141.02;59.62;42494.25;5094005;28;20189;-64
2023/10/02 09:33:14;;;;;;;18.13;17.23;;;;;;;-141.02;60.52;42544.16;5093972;28;20551;-61
2023/10/02 09:35:43;;;;;;;17.63;16.73;;;;;;;-141.02;60.09;42486.56;5093690;28;20229;-61
2023/10/02 09:38:15;;;;;;;17.50;16.60;;;;;;;-141.02;60.52;42517.28;5093578;28;20251;-59
2023/10/02 09:40:54;;;;;;;17.05;16.17;;;;;;;-141.02;59.91;42521.13;5093488;28;20193;-60
2023/10/02 09:43:24;;;;;;;17.10;16.27;;;;;;;-141.02;60.47;42553.75;5093892;28;20281;-61
2023/10/02 09:45:55;;;;;;;17.00;16.20;;;;;;;-141.02;60.27;42571.03;5093685;28;20229;-65
2023/10/02 09:51:37;;;;;;;17.00;16.10;;;;;;;-141.02;58.88;42536.47;5093727;28;20185;-58
2023/10/02 09:54:21;;;;;;;17.15;16.35;;;;;;;-141.02;59.88;42595.97;5093652;28;20189;-62
2023/10/02 09:57:12;;;;;;;16.48;15.77;;;;;;;-141.02;60.77;42601.72;5094075;28;20190;-61
2023/10/02 09:59:46;;;;;;;16.83;16.02;;;;;;;-141.02;59.83;42394.41;5092992;28;20619;-60
2023/10/02 10:08:27;;;;;;;16.80;16.00;;;;;;;-141.02;60.83;42379.06;5093090;28;20220;-62
2023/10/02 10:10:57;;;;;;;16.35;15.65;;;;;;;-141.02;60.40;42578.69;5092981;28;20193;-62
2023/10/02 10:13:36;;;;;;;16.63;15.93;;;;;;;-141.02;60.28;42607.50;5092875;28;20255;-58
2023/10/02 10:16:40;;;;;;;16.25;15.55;;;;;;;-141.02;60.74;42617.09;5093252;28;20204;-64
2023/10/02 10:19:26;;;;;;;16.52;15.82;;;;;;;-141.02;60.07;42613.25;5092875;28;20227;-64
2023/10/02 10:22:00;;;;;;;17.02;16.23;;;;;;;-141.02;60.09;42538.38;5092873;28;20644;-65
2023/10/02 10:24:36;;;;;;;16.65;15.85;;;;;;;-141.02;60.04;42567.19;5093069;28;20220;-61
2023/10/02 10:27:03;;;;;;;16.58;15.80;;;;;;;-141.02;60.24;42613.25;5092430;28;20196;-62
2023/10/02 10:29:41;;;;;;;16.90;16.10;;;;;;;-141.02;60.54;42620.94;5092559;28;20236;-64
2023/10/02 10:32:23;;;;;;;16.13;15.43;;;;;;;-141.02;59.85;42622.84;5092949;28;20201;-64
2023/10/02 10:37:57;;;;;;;16.63;15.90;;;;;;;-141.02;58.56;42590.22;5089823;27;20687;-63
2023/10/02 10:40:44;;;;;;;16.20;15.50;;;;;;;-141.02;57.87;42624.78;5089473;28;20684;-65
2023/10/02 10:43:13;;;;;;;16.15;15.45;;;;;;;-141.02;58.24;42670.84;5089872;28;20255;-68
2023/10/02 10:45:40;;;;;;;16.58;15.88;;;;;;;-141.02;57.60;42603.66;5089708;28;20237;-66
2023/10/02 10:48:18;;;;;;;16.70;16.00;;;;;;;-141.02;58.39;42632.44;5089685;28;20194;-68
2023/10/02 10:50:56;;;;;;;19.00;18.08;;;;;;;-141.02;59.31;42471.19;5089463;28;20772;-67
2023/10/02 10:53:28;;;;;;;16.77;16.08;;;;;;;-141.02;58.98;42655.47;5089648;28;20204;-68
2023/10/02 10:56:03;;;;;;;16.38;15.68;;;;;;;-141.02;59.04;42663.16;5089570;28;20214;-69
2023/10/02 10:58:34;;;;;;;16.67;15.98;;;;;;;-141.02;59.96;42709.25;5089533;28;20185;-66
2023/10/02 11:01:03;;;;;;;16.52;15.82;;;;;;;-141.02;60.16;42693.88;5089491;28;20190;-67
2023/10/02 11:03:31;;;;;;;16.40;15.70;;;;;;;-141.02;58.76;42500.00;5089187;28;20233;-65
2023/10/02 11:06:04;;;;;;;16.38;15.68;;;;;;;-141.02;59.01;42682.34;5089361;28;20206;-67
2023/10/02 11:08:37;;;;;;;16.60;15.90;;;;;;;-141.02;57.79;42498.06;5089415;28;20662;-66
2023/10/02 11:11:19;;;;;;;16.80;16.08;;;;;;;-141.02;58.75;42521.13;5088968;28;20221;-66
2023/10/02 11:13:54;;;;;;;16.48;15.77;;;;;;;-141.02;58.45;42709.25;5089005;28;20193;-67
2023/10/02 11:16:30;;;;;;;16.42;15.73;;;;;;;-141.02;58.18;42517.28;5088839;28;20241;-66
2023/10/02 11:19:25;;;;;;;16.67;15.88;;;;;;;-141.02;58.79;42540.31;5088888;28;20570;-67
2023/10/02 11:22:14;;;;;;;16.30;15.60;;;;;;;-141.02;59.58;42580.63;5088817;28;20570;-66
2023/10/02 11:24:46;;;;;;;16.35;15.65;;;;;;;-141.02;60.64;42736.13;5088744;28;20664;-66
2023/10/02 11:27:15;;;;;;;16.70;15.90;;;;;;;-141.02;59.83;42730.34;5089098;28;20228;-66
2023/10/02 11:29:42;;;;;;;16.45;15.75;;;;;;;-141.02;59.49;42755.31;5088645;28;20280;-64
2023/10/02 11:32:23;;;;;;;16.67;15.88;;;;;;;-141.02;59.43;42590.22;5088634;28;20194;-67
2023/10/02 11:34:51;;;;;;;16.58;15.88;;;;;;;-141.02;58.87;42597.91;5088568;28;20196;-67
2023/10/02 11:37:23;;;;;;;16.85;16.10;;;;;;;-141.02;60.18;42613.25;5088307;28;20324;-68
2023/10/02 11:39:51;;;;;;;16.75;15.95;;;;;;;-141.02;60.88;42651.66;5088380;28;20186;-67
2023/10/02 11:42:21;;;;;;;16.67;15.98;;;;;;;-141.02;60.79;42590.22;5088439;28;20194;-65
2023/10/02 11:44:48;;;;;;;16.75;16.05;;;;;;;-141.02;60.35;42613.25;5088674;28;20190;-67
2023/10/02 11:47:16;;;;;;;16.75;16.05;;;;;;;-141.02;60.04;42686.19;5086189;28;20198;-66